createdAt,value
2022-07-29T00:01:01.983Z,18.13
2022-07-29T00:03:28.469Z,18.09
2022-07-29T00:05:55.005Z,18.19
2022-07-29T00:08:21.683Z,18.07
2022-07-29T00:10:48.889Z,18.01
2022-07-29T00:13:15.554Z,18.00
2022-07-29T00:15:42.271Z,17.99
2022-07-29T00:18:08.769Z,18.03
2022-07-29T00:20:35.239Z,18.04
2022-07-29T00:23:01.693Z,17.99
2022-07-29T00:25:28.241Z,17.99
2022-07-29T00:27:54.755Z,17.94
2022-07-29T00:30:21.430Z,17.94
2022-07-29T00:32:47.851Z,17.90
2022-07-29T00:35:32.731Z,17.91
2022-07-29T00:38:00.065Z,17.91
2022-07-29T00:40:28.823Z,17.83
2022-07-29T00:42:55.391Z,17.77
2022-07-29T00:45:23.053Z,17.74
2022-07-29T00:47:49.963Z,17.71
2022-07-29T00:50:16.731Z,17.67
2022-07-29T00:52:43.654Z,17.66
2022-07-29T00:55:14.351Z,17.62
2022-07-29T00:57:42.789Z,17.58
2022-07-29T01:00:13.294Z,17.59
2022-07-29T01:02:39.767Z,17.52
2022-07-29T01:05:06.959Z,17.50
2022-07-29T01:07:35.911Z,17.42
2022-07-29T01:10:07.331Z,17.34
2022-07-29T01:12:36.305Z,17.33
2022-07-29T01:15:05.632Z,17.30
2022-07-29T01:17:41.862Z,17.23
2022-07-29T01:20:54.204Z,17.28
2022-07-29T01:23:39.135Z,17.18
2022-07-29T01:26:17.031Z,17.19
2022-07-29T01:29:06.113Z,17.14
2022-07-29T01:31:36.569Z,17.12
2022-07-29T01:34:09.532Z,17.12
2022-07-29T01:36:49.419Z,17.06
2022-07-29T01:39:33.402Z,17.03
2022-07-29T01:42:11.878Z,17.03
2022-07-29T01:45:05.552Z,17.00
2022-07-29T01:48:11.091Z,16.97
2022-07-29T01:50:44.486Z,16.92
2022-07-29T01:53:13.533Z,16.89
2022-07-29T01:55:43.542Z,16.90
2022-07-29T01:58:11.722Z,16.92
2022-07-29T02:00:39.872Z,16.91
2022-07-29T02:03:12.893Z,16.93
2022-07-29T02:05:43.229Z,16.89
2022-07-29T02:08:11.762Z,16.94
2022-07-29T02:24:26.112Z,16.82
2022-07-29T02:26:56.044Z,16.79
2022-07-29T02:29:24.600Z,16.78
2022-07-29T02:31:52.494Z,16.81
2022-07-29T02:34:21.726Z,16.82
2022-07-29T02:36:50.320Z,16.79
2022-07-29T02:39:18.104Z,16.83
2022-07-29T02:41:48.656Z,16.78
2022-07-29T02:44:18.402Z,16.73
2022-07-29T02:47:13.211Z,16.74
2022-07-29T02:49:47.843Z,16.73
2022-07-29T02:52:21.239Z,16.69
2022-07-29T02:54:55.932Z,16.67
2022-07-29T02:57:53.939Z,16.71
2022-07-29T03:00:24.517Z,16.64
2022-07-29T03:02:54.633Z,16.61
2022-07-29T03:05:22.797Z,16.59
2022-07-29T03:08:06.740Z,16.55
2022-07-29T03:10:33.875Z,16.52
2022-07-29T03:13:01.279Z,16.56
2022-07-29T03:15:28.097Z,16.49
2022-07-29T03:17:56.471Z,16.47
2022-07-29T03:20:23.112Z,16.45
2022-07-29T03:22:49.727Z,16.43
2022-07-29T03:25:18.307Z,16.39
2022-07-29T03:27:45.483Z,16.38
2022-07-29T03:30:18.196Z,16.38
2022-07-29T03:32:48.523Z,16.32
2022-07-29T03:35:17.405Z,16.26
2022-07-29T03:37:45.069Z,16.29
2022-07-29T03:40:18.254Z,16.23
2022-07-29T03:42:46.614Z,16.19
2022-07-29T03:45:16.679Z,16.19
2022-07-29T03:47:59.910Z,16.17
2022-07-29T03:50:30.874Z,16.16
2022-07-29T03:52:58.379Z,16.11
2022-07-29T03:55:25.825Z,16.07
2022-07-29T03:57:53.134Z,16.12
2022-07-29T04:00:20.459Z,16.15
2022-07-29T04:02:49.346Z,16.13
2022-07-29T04:05:17.259Z,16.15
2022-07-29T04:07:48.553Z,16.13
2022-07-29T04:10:16.695Z,16.13
2022-07-29T04:12:44.253Z,16.15
2022-07-29T04:15:11.798Z,16.10
2022-07-29T04:17:38.711Z,16.11
2022-07-29T04:20:05.924Z,16.15
2022-07-29T04:22:32.352Z,16.17
2022-07-29T04:25:03.535Z,16.22
2022-07-29T04:27:30.563Z,16.22
2022-07-29T04:29:57.625Z,16.22
2022-07-29T04:32:25.446Z,16.22
2022-07-29T04:34:51.918Z,16.18
2022-07-29T04:37:18.307Z,16.23
2022-07-29T04:39:44.739Z,16.25
2022-07-29T04:42:11.356Z,16.25
2022-07-29T04:44:39.735Z,16.32
2022-07-29T04:47:09.689Z,16.33
2022-07-29T04:49:39.058Z,16.36
2022-07-29T04:52:06.752Z,16.34
2022-07-29T04:54:33.349Z,16.33
2022-07-29T04:56:59.887Z,16.35
2022-07-29T04:59:27.560Z,16.35
2022-07-29T05:01:54.144Z,16.41
2022-07-29T05:04:21.033Z,16.46
2022-07-29T05:06:47.704Z,16.48
2022-07-29T05:09:14.039Z,16.47
2022-07-29T05:11:40.611Z,16.61
2022-07-29T05:14:07.060Z,16.59
2022-07-29T05:16:34.355Z,16.65
2022-07-29T05:19:00.972Z,16.72
2022-07-29T05:21:27.388Z,16.79
2022-07-29T05:23:53.700Z,16.84
2022-07-29T05:26:20.220Z,16.85
2022-07-29T05:28:46.904Z,16.92
2022-07-29T05:31:15.464Z,16.94
2022-07-29T05:33:42.644Z,16.83
2022-07-29T05:36:09.187Z,16.91
2022-07-29T05:38:36.775Z,16.95
2022-07-29T05:41:03.428Z,17.02
2022-07-29T05:43:30.023Z,17.17
2022-07-29T05:45:57.322Z,17.18
2022-07-29T05:48:24.072Z,17.21
2022-07-29T05:50:50.576Z,17.29
2022-07-29T05:53:19.882Z,17.43
2022-07-29T05:55:48.149Z,17.54
2022-07-29T05:58:14.636Z,17.66
2022-07-29T06:00:41.336Z,17.72
2022-07-29T06:03:07.838Z,17.78
2022-07-29T06:05:34.323Z,17.79
2022-07-29T06:08:00.856Z,17.88
2022-07-29T06:10:27.766Z,17.90
2022-07-29T06:12:54.607Z,17.97
2022-07-29T06:15:21.186Z,18.04
2022-07-29T06:18:00.065Z,18.28
2022-07-29T06:20:31.116Z,18.44
2022-07-29T06:22:58.145Z,18.61
2022-07-29T06:25:24.617Z,18.91
2022-07-29T06:27:51.056Z,19.19
2022-07-29T06:30:17.556Z,19.30
2022-07-29T06:32:44.012Z,19.71
2022-07-29T06:35:39.214Z,19.81
2022-07-29T06:37:58.026Z,19.96
2022-07-29T06:40:45.346Z,20.29
2022-07-29T06:43:12.355Z,20.45
2022-07-29T06:45:42.030Z,20.92
2022-07-29T06:48:08.922Z,21.21
2022-07-29T06:50:35.562Z,21.57
2022-07-29T06:53:02.238Z,21.78
2022-07-29T06:55:28.806Z,21.53
2022-07-29T06:57:55.296Z,21.54
2022-07-29T07:00:21.942Z,21.68
2022-07-29T07:02:48.811Z,21.80
2022-07-29T07:05:15.430Z,21.92
2022-07-29T07:07:42.189Z,22.39
2022-07-29T07:10:09.124Z,22.54
2022-07-29T07:12:35.759Z,22.35
2022-07-29T07:15:02.243Z,22.33
2022-07-29T07:17:28.781Z,22.31
2022-07-29T07:19:55.735Z,22.21
2022-07-29T07:22:22.291Z,22.21
2022-07-29T07:24:48.739Z,22.33
2022-07-29T07:27:15.357Z,22.30
2022-07-29T07:29:42.104Z,22.12
2022-07-29T07:32:10.950Z,21.98
2022-07-29T07:34:38.744Z,22.05
2022-07-29T07:37:06.430Z,22.33
2022-07-29T07:39:32.960Z,22.36
2022-07-29T07:41:59.715Z,22.51
2022-07-29T07:44:26.161Z,21.99
2022-07-29T07:46:53.332Z,21.95
2022-07-29T07:49:21.737Z,22.16
2022-07-29T07:51:50.318Z,22.13
2022-07-29T07:54:18.450Z,22.16
2022-07-29T07:56:49.819Z,22.24
2022-07-29T07:59:19.364Z,22.19
2022-07-29T08:01:48.403Z,22.26
2022-07-29T08:04:27.739Z,22.31
2022-07-29T08:06:56.388Z,22.15
2022-07-29T08:09:30.944Z,22.22
2022-07-29T08:11:59.448Z,22.25
2022-07-29T08:14:26.139Z,22.21
2022-07-29T08:16:52.820Z,22.40
2022-07-29T08:19:19.469Z,22.38
2022-07-29T08:21:46.322Z,22.55
2022-07-29T08:24:31.577Z,22.64
2022-07-29T08:26:58.107Z,22.66
2022-07-29T08:29:24.540Z,22.76
2022-07-29T08:31:51.252Z,22.77
2022-07-29T08:34:17.910Z,22.79
2022-07-29T08:36:44.645Z,22.76
2022-07-29T08:39:16.689Z,22.84
2022-07-29T08:41:53.082Z,23.00
2022-07-29T08:44:30.497Z,23.23
2022-07-29T08:46:57.911Z,23.42
2022-07-29T08:49:24.685Z,23.53
2022-07-29T08:51:53.126Z,23.64
2022-07-29T08:54:20.859Z,23.80
2022-07-29T08:56:51.214Z,23.65
2022-07-29T08:59:21.798Z,23.71
2022-07-29T09:01:53.671Z,23.75
2022-07-29T09:04:21.666Z,23.66
2022-07-29T09:06:52.639Z,23.47
2022-07-29T09:09:19.273Z,23.69
2022-07-29T09:11:45.877Z,23.84
2022-07-29T09:14:14.244Z,23.92
2022-07-29T09:16:53.847Z,23.71
2022-07-29T09:19:25.964Z,23.59
2022-07-29T09:21:59.704Z,23.45
2022-07-29T09:24:48.355Z,23.51
2022-07-29T09:27:27.381Z,23.58
2022-07-29T09:29:58.569Z,23.44
2022-07-29T09:32:25.447Z,23.42
2022-07-29T09:34:55.680Z,23.37
2022-07-29T09:37:29.441Z,23.60
2022-07-29T09:39:56.216Z,23.54
2022-07-29T09:42:33.490Z,23.66
2022-07-29T09:45:00.060Z,23.54
2022-07-29T09:47:42.304Z,23.60
2022-07-29T09:50:09.048Z,23.51
2022-07-29T09:52:46.119Z,23.56
2022-07-29T09:55:13.613Z,23.57
2022-07-29T09:57:46.025Z,23.63
2022-07-29T10:00:20.691Z,23.73
2022-07-29T10:02:48.128Z,23.79
2022-07-29T10:05:23.855Z,23.80
2022-07-29T10:07:57.475Z,23.89
2022-07-29T10:10:31.648Z,23.85
2022-07-29T10:13:07.955Z,23.93
2022-07-29T10:15:40.005Z,24.23
2022-07-29T10:18:11.644Z,24.33
2022-07-29T10:20:39.425Z,24.31
2022-07-29T10:23:05.931Z,24.25
2022-07-29T10:25:32.985Z,24.20
2022-07-29T10:27:59.731Z,24.24
2022-07-29T10:30:27.234Z,24.60
2022-07-29T10:33:12.797Z,24.78
2022-07-29T10:36:04.123Z,24.92
2022-07-29T10:38:49.384Z,25.11
2022-07-29T10:41:31.983Z,24.83
2022-07-29T10:44:06.436Z,24.81
2022-07-29T10:46:39.065Z,24.80
2022-07-29T10:49:16.918Z,24.98
2022-07-29T10:51:59.231Z,24.87
2022-07-29T10:54:42.554Z,25.00
2022-07-29T10:57:53.710Z,25.20
2022-07-29T11:00:19.484Z,25.19
2022-07-29T11:02:49.502Z,25.14
2022-07-29T11:05:20.051Z,25.05
2022-07-29T11:08:19.994Z,24.80
2022-07-29T11:10:49.644Z,24.98
2022-07-29T11:13:53.241Z,25.06
2022-07-29T11:19:13.937Z,25.43
2022-07-29T11:21:54.169Z,25.31
2022-07-29T11:24:30.155Z,25.43
2022-07-29T11:27:31.607Z,25.40
2022-07-29T11:30:03.311Z,25.47
2022-07-29T11:32:39.772Z,25.63
2022-07-29T11:35:17.157Z,25.74
2022-07-29T11:38:21.023Z,25.51
2022-07-29T11:41:27.240Z,25.51
2022-07-29T11:44:13.500Z,25.30
2022-07-29T11:46:49.560Z,25.30
2022-07-29T11:49:32.147Z,25.55
2022-07-29T11:52:02.344Z,25.46
2022-07-29T11:54:57.487Z,25.51
2022-07-29T11:57:21.900Z,25.26
2022-07-29T11:59:48.774Z,25.25
2022-07-29T12:02:37.400Z,25.28
2022-07-29T12:05:10.892Z,25.25
2022-07-29T12:07:39.492Z,25.43
2022-07-29T12:10:11.580Z,25.52
2022-07-29T12:12:53.564Z,25.46
2022-07-29T12:15:24.915Z,25.43
2022-07-29T12:18:24.331Z,25.51
2022-07-29T12:20:58.844Z,25.53
2022-07-29T12:23:25.673Z,25.63
2022-07-29T12:25:56.406Z,25.67
2022-07-29T12:28:27.506Z,25.56
2022-07-29T12:30:54.799Z,25.54
2022-07-29T12:33:24.872Z,25.44
2022-07-29T12:36:15.658Z,25.22
2022-07-29T12:38:41.560Z,25.24
2022-07-29T12:41:09.331Z,25.13
2022-07-29T12:43:35.899Z,25.08
2022-07-29T12:46:14.416Z,25.12
2022-07-29T12:48:43.317Z,25.18
2022-07-29T12:51:12.438Z,25.18
2022-07-29T12:53:39.999Z,25.41
2022-07-29T12:56:20.732Z,25.39
2022-07-29T12:58:53.597Z,25.23
2022-07-29T13:01:21.037Z,25.15
2022-07-29T13:03:57.078Z,25.07
2022-07-29T13:06:33.148Z,25.14
2022-07-29T13:09:12.633Z,25.03
2022-07-29T13:11:50.280Z,25.02
2022-07-29T13:14:39.744Z,25.06
2022-07-29T13:17:16.654Z,24.90
2022-07-29T13:19:50.979Z,24.87
2022-07-29T13:22:21.414Z,24.99
2022-07-29T13:25:00.439Z,25.05
2022-07-29T13:27:33.031Z,25.06
2022-07-29T13:30:01.631Z,25.23
2022-07-29T13:32:30.716Z,25.12
2022-07-29T13:34:58.312Z,25.22
2022-07-29T13:37:25.261Z,25.13
2022-07-29T13:39:53.530Z,25.29
2022-07-29T13:42:20.695Z,25.44
2022-07-29T13:44:49.510Z,25.40
2022-07-29T13:47:17.062Z,25.44
2022-07-29T13:49:43.628Z,25.56
2022-07-29T13:52:10.665Z,25.64
2022-07-29T13:54:42.120Z,25.53
2022-07-29T13:57:11.502Z,25.56
2022-07-29T13:59:38.049Z,25.34
2022-07-29T14:02:04.632Z,25.41
2022-07-29T14:04:31.189Z,25.34
2022-07-29T14:07:23.388Z,25.33
2022-07-29T14:20:32.312Z,24.69
2022-07-29T14:22:58.800Z,24.74
2022-07-29T14:25:25.332Z,24.90
2022-07-29T14:27:53.996Z,24.76
2022-07-29T14:30:21.139Z,24.69
2022-07-29T14:32:47.836Z,24.50
2022-07-29T14:35:14.582Z,24.46
2022-07-29T14:37:41.223Z,24.26
2022-07-29T14:40:09.472Z,24.36
2022-07-29T14:42:37.031Z,24.27
2022-07-29T14:45:04.818Z,24.18
2022-07-29T14:47:31.344Z,24.15
2022-07-29T14:49:57.800Z,24.27
2022-07-29T14:52:24.231Z,24.25
2022-07-29T14:54:50.685Z,24.37
2022-07-29T14:57:17.495Z,24.37
2022-07-29T14:59:44.039Z,24.47
2022-07-29T15:02:10.677Z,24.53
2022-07-29T15:04:37.480Z,24.55
2022-07-29T15:07:04.680Z,24.60
2022-07-29T15:09:31.208Z,24.63
2022-07-29T15:11:58.029Z,24.73
2022-07-29T15:14:24.665Z,24.76
2022-07-29T15:16:52.759Z,24.86
2022-07-29T15:19:20.073Z,24.94
2022-07-29T15:21:48.559Z,24.86
2022-07-29T15:24:26.870Z,24.86
2022-07-29T15:26:54.383Z,24.90
2022-07-29T15:29:20.998Z,24.94
2022-07-29T15:31:47.490Z,24.96
2022-07-29T15:34:14.313Z,25.04
2022-07-29T15:36:56.350Z,25.20
2022-07-29T15:39:23.341Z,25.28
2022-07-29T15:41:50.574Z,25.29
2022-07-29T15:44:17.276Z,25.61
2022-07-29T15:47:02.759Z,25.58
2022-07-29T15:49:47.134Z,25.81
2022-07-29T15:52:17.916Z,25.86
2022-07-29T15:54:44.435Z,25.91
2022-07-29T15:57:10.943Z,25.93
2022-07-29T15:59:37.745Z,26.00
2022-07-29T16:02:05.232Z,26.02
2022-07-29T16:04:33.368Z,25.80
2022-07-29T16:07:00.553Z,26.26
2022-07-29T16:09:28.761Z,26.42
2022-07-29T16:11:56.196Z,26.51
2022-07-29T16:14:22.809Z,26.44
2022-07-29T16:16:49.332Z,26.55
2022-07-29T16:19:15.820Z,26.36
2022-07-29T16:21:42.528Z,25.93
2022-07-29T16:24:09.144Z,25.94
2022-07-29T16:26:35.832Z,25.91
2022-07-29T16:29:03.944Z,25.96
2022-07-29T16:31:30.661Z,26.76
2022-07-29T16:33:57.273Z,27.13
2022-07-29T16:36:23.805Z,27.54
2022-07-29T16:38:51.139Z,27.86
2022-07-29T16:41:17.674Z,27.98
2022-07-29T16:43:44.128Z,27.91
2022-07-29T16:46:14.024Z,27.84
2022-07-29T16:48:45.623Z,27.73
2022-07-29T16:51:14.388Z,27.69
2022-07-29T16:53:41.657Z,27.84
2022-07-29T16:56:11.189Z,27.79
2022-07-29T16:58:43.562Z,27.85
2022-07-29T17:01:11.483Z,27.90
2022-07-29T17:04:00.118Z,27.38
2022-07-29T17:06:28.586Z,27.30
2022-07-29T17:08:55.907Z,27.11
2022-07-29T17:11:22.399Z,27.12
2022-07-29T17:14:10.079Z,26.96
2022-07-29T17:16:36.621Z,26.60
2022-07-29T17:19:03.374Z,26.40
2022-07-29T17:21:29.820Z,26.41
2022-07-29T17:23:58.660Z,26.16
2022-07-29T17:26:25.194Z,26.13
2022-07-29T17:28:51.935Z,25.94
2022-07-29T17:31:18.431Z,25.80
2022-07-29T17:33:45.011Z,25.80
2022-07-29T17:36:29.463Z,25.67
2022-07-29T17:38:59.044Z,25.65
2022-07-29T17:41:26.636Z,25.64
2022-07-29T17:43:54.024Z,25.51
2022-07-29T17:46:22.719Z,25.53
2022-07-29T17:48:49.531Z,25.57
2022-07-29T17:51:16.064Z,25.61
2022-07-29T17:53:42.568Z,25.53
2022-07-29T17:56:09.092Z,25.51
2022-07-29T17:58:35.664Z,25.37
2022-07-29T18:01:02.188Z,25.33
2022-07-29T18:03:28.763Z,25.30
2022-07-29T18:05:55.328Z,25.12
2022-07-29T18:08:21.891Z,25.00
2022-07-29T18:10:48.337Z,24.94
2022-07-29T18:13:16.398Z,24.79
2022-07-29T18:15:45.000Z,24.75
2022-07-29T18:18:13.032Z,24.66
2022-07-29T18:20:39.541Z,24.66
2022-07-29T18:23:06.392Z,24.47
2022-07-29T18:25:32.831Z,24.38
2022-07-29T18:28:00.624Z,24.39
2022-07-29T18:30:29.137Z,24.18
2022-07-29T18:33:19.854Z,24.15
2022-07-29T18:35:44.152Z,23.96
2022-07-29T18:38:11.111Z,23.86
2022-07-29T18:40:39.971Z,23.86
2022-07-29T18:43:07.121Z,23.80
2022-07-29T18:45:33.828Z,23.46
2022-07-29T18:48:02.008Z,23.31
2022-07-29T18:50:30.013Z,23.32
2022-07-29T18:52:58.638Z,23.13
2022-07-29T18:55:26.102Z,23.10
2022-07-29T18:57:56.288Z,22.92
2022-07-29T19:00:24.870Z,22.65
2022-07-29T19:02:52.601Z,22.53
2022-07-29T19:05:19.508Z,22.49
2022-07-29T19:07:45.938Z,22.29
2022-07-29T19:10:13.416Z,22.27
2022-07-29T19:12:39.868Z,22.17
2022-07-29T19:15:07.552Z,22.08
2022-07-29T19:17:34.040Z,21.87
2022-07-29T19:20:00.872Z,21.86
2022-07-29T19:22:27.702Z,21.46
2022-07-29T19:24:54.252Z,21.49
2022-07-29T19:27:20.736Z,21.45
2022-07-29T19:29:47.263Z,21.39
2022-07-29T19:32:14.453Z,21.29
2022-07-29T19:35:10.161Z,21.18
2022-07-29T19:37:37.259Z,21.13
2022-07-29T19:40:04.606Z,21.13
2022-07-29T19:42:31.204Z,21.10
2022-07-29T19:44:57.611Z,21.03
2022-07-29T19:47:24.053Z,20.77
2022-07-29T19:49:50.630Z,20.79
2022-07-29T19:52:17.121Z,20.68
2022-07-29T19:54:43.538Z,20.71
2022-07-29T19:57:10.019Z,20.75
2022-07-29T19:59:36.696Z,20.69
2022-07-29T20:02:03.834Z,20.67
2022-07-29T20:04:30.463Z,20.60
2022-07-29T20:07:01.200Z,20.58
2022-07-29T20:09:28.411Z,20.47
2022-07-29T20:11:55.026Z,20.47
2022-07-29T20:14:21.641Z,20.43
2022-07-29T20:16:48.173Z,20.39
2022-07-29T20:19:14.881Z,20.34
2022-07-29T20:21:41.494Z,20.31
2022-07-29T20:24:08.651Z,20.22
2022-07-29T20:26:35.171Z,20.19
2022-07-29T20:29:04.986Z,20.12
2022-07-29T20:31:32.645Z,20.01
2022-07-29T20:34:00.567Z,20.00
2022-07-29T20:36:28.003Z,19.96
2022-07-29T20:38:55.194Z,19.94
2022-07-29T20:41:22.191Z,19.96
2022-07-29T20:43:49.752Z,19.89
2022-07-29T20:46:16.309Z,19.90
2022-07-29T20:48:42.870Z,19.91
2022-07-29T20:51:09.419Z,19.80
2022-07-29T20:53:38.389Z,19.80
2022-07-29T20:56:05.623Z,19.75
2022-07-29T20:58:33.967Z,19.77
2022-07-29T21:01:01.152Z,19.66
2022-07-29T21:03:27.594Z,19.55
2022-07-29T21:05:54.067Z,19.59
2022-07-29T21:08:20.547Z,19.46
2022-07-29T21:10:47.011Z,19.41
2022-07-29T21:13:14.291Z,19.37
2022-07-29T21:15:44.812Z,19.31
2022-07-29T21:18:26.809Z,19.24
2022-07-29T21:20:58.107Z,19.29
2022-07-29T21:23:26.238Z,19.12
2022-07-29T21:25:54.390Z,19.07
2022-07-29T21:28:26.664Z,19.05
2022-07-29T21:31:00.890Z,18.96
2022-07-29T21:33:28.799Z,18.92
2022-07-29T21:36:46.068Z,18.93
2022-07-29T21:38:42.429Z,18.82
2022-07-29T21:41:10.763Z,18.84
2022-07-29T21:43:37.296Z,18.78
2022-07-29T21:46:09.343Z,18.80
2022-07-29T21:48:35.863Z,18.78
2022-07-29T21:51:02.321Z,18.69
2022-07-29T21:53:28.786Z,18.71
2022-07-29T21:55:57.228Z,18.74
2022-07-29T21:58:24.496Z,18.67
2022-07-29T22:00:51.688Z,18.66
2022-07-29T22:03:18.347Z,18.74
2022-07-29T22:05:44.936Z,18.76
2022-07-29T22:08:11.451Z,18.77
2022-07-29T22:10:38.203Z,18.68
2022-07-29T22:13:04.740Z,18.73
2022-07-29T22:15:32.386Z,18.69
2022-07-29T22:17:59.304Z,18.62
2022-07-29T22:20:26.435Z,18.63
2022-07-29T22:22:53.567Z,18.67
2022-07-29T22:25:20.662Z,18.69
2022-07-29T22:27:47.363Z,18.68
2022-07-29T22:30:14.611Z,18.66
2022-07-29T22:32:41.457Z,18.69
2022-07-29T22:35:08.334Z,18.66
2022-07-29T22:37:34.976Z,18.64
2022-07-29T22:40:01.868Z,18.62
2022-07-29T22:42:28.372Z,18.67
2022-07-29T22:44:55.061Z,18.63
2022-07-29T22:47:46.620Z,18.59
2022-07-29T22:50:08.383Z,18.48
2022-07-29T22:52:34.838Z,18.47
2022-07-29T22:55:01.943Z,18.47
2022-07-29T22:57:28.385Z,18.48
2022-07-29T22:59:55.160Z,18.47
2022-07-29T23:02:21.591Z,18.47
2022-07-29T23:04:48.043Z,18.42
2022-07-29T23:07:14.474Z,18.39
2022-07-29T23:09:40.867Z,18.42
2022-07-29T23:12:07.764Z,18.42
2022-07-29T23:14:34.203Z,18.41
2022-07-29T23:17:00.922Z,18.40
2022-07-29T23:19:27.602Z,18.38
2022-07-29T23:21:53.926Z,18.33
2022-07-29T23:24:20.550Z,18.32
2022-07-29T23:26:47.107Z,18.30
2022-07-29T23:29:13.562Z,18.35
2022-07-29T23:31:41.836Z,18.26
2022-07-29T23:34:14.608Z,18.26
2022-07-29T23:36:42.142Z,18.27
2022-07-29T23:39:11.212Z,18.23
2022-07-29T23:41:37.781Z,18.14
2022-07-29T23:44:04.491Z,18.16
2022-07-29T23:46:31.016Z,18.05
2022-07-29T23:48:57.538Z,18.13
2022-07-29T23:51:24.920Z,18.12
2022-07-29T23:53:53.587Z,18.09
2022-07-29T23:56:21.221Z,18.08
2022-07-29T23:58:47.801Z,18.02
